createdAt,value
2019-03-25T00:01:50.724Z,5.20
2019-03-25T00:05:14.931Z,5.30
2019-03-25T00:08:38.827Z,5.20
2019-03-25T00:12:02.880Z,5.30
2019-03-25T00:15:26.792Z,5.40
2019-03-25T00:18:50.853Z,5.50
2019-03-25T00:22:14.816Z,5.70
2019-03-25T00:25:38.977Z,5.80
2019-03-25T00:29:02.884Z,5.90
2019-03-25T00:32:26.798Z,6.00
2019-03-25T00:35:50.752Z,6.00
2019-03-25T00:39:15.005Z,6.00
2019-03-25T00:42:39.046Z,5.90
2019-03-25T00:46:02.953Z,5.90
2019-03-25T00:49:26.879Z,5.80
2019-03-25T00:52:50.863Z,5.80
2019-03-25T00:56:14.766Z,5.70
2019-03-25T00:59:39.167Z,5.70
2019-03-25T01:03:03.215Z,5.60
2019-03-25T01:06:27.115Z,5.50
2019-03-25T01:09:51.166Z,5.40
2019-03-25T01:13:15.154Z,5.40
2019-03-25T01:16:39.172Z,5.40
2019-03-25T01:20:03.198Z,5.60
2019-03-25T01:23:27.503Z,5.70
2019-03-25T01:26:51.401Z,5.80
2019-03-25T01:30:15.373Z,5.90
2019-03-25T01:33:39.292Z,6.00
2019-03-25T01:37:03.152Z,6.10
2019-03-25T01:40:27.076Z,6.20
2019-03-25T01:43:51.280Z,6.20
2019-03-25T01:47:15.198Z,6.20
2019-03-25T01:50:39.198Z,6.20
2019-03-25T01:54:03.094Z,6.20
2019-03-25T01:57:27.013Z,6.10
2019-03-25T02:00:51.019Z,6.10
2019-03-25T02:04:14.890Z,6.10
2019-03-25T02:07:38.869Z,6.20
2019-03-25T02:11:02.794Z,6.30
2019-03-25T02:14:26.746Z,6.30
2019-03-25T02:17:50.680Z,6.40
2019-03-25T02:21:14.583Z,6.40
2019-03-25T02:24:38.594Z,6.50
2019-03-25T02:28:02.473Z,6.50
2019-03-25T02:31:26.387Z,6.50
2019-03-25T02:34:50.572Z,6.50
2019-03-25T02:38:14.522Z,6.60
2019-03-25T02:41:38.522Z,6.70
2019-03-25T02:45:02.467Z,6.70
2019-03-25T02:48:26.470Z,6.70
2019-03-25T02:51:50.491Z,6.70
2019-03-25T02:55:14.403Z,6.60
2019-03-25T02:59:48.124Z,6.50
2019-03-25T03:08:13.997Z,6.60
2019-03-25T03:11:38.241Z,6.60
2019-03-25T03:15:02.183Z,6.60
2019-03-25T03:18:26.105Z,6.60
2019-03-25T03:21:50.040Z,6.50
2019-03-25T03:25:13.949Z,6.50
2019-03-25T03:28:37.852Z,6.60
2019-03-25T03:32:01.760Z,6.60
2019-03-25T03:35:25.674Z,6.60
2019-03-25T03:38:49.576Z,6.60
2019-03-25T03:42:13.477Z,6.60
2019-03-25T03:45:37.436Z,6.70
2019-03-25T03:49:01.326Z,6.70
2019-03-25T03:52:25.310Z,6.60
2019-03-25T03:55:50.612Z,6.60
2019-03-25T03:59:14.504Z,6.60
2019-03-25T04:02:38.394Z,6.60
2019-03-25T04:06:02.303Z,6.60
2019-03-25T04:09:26.237Z,6.70
2019-03-25T04:12:50.198Z,6.70
2019-03-25T04:16:14.114Z,6.70
2019-03-25T04:19:38.613Z,6.70
2019-03-25T04:23:02.571Z,6.70
2019-03-25T04:26:28.825Z,6.70
2019-03-25T04:29:52.288Z,6.70
2019-03-25T04:33:16.249Z,6.70
2019-03-25T04:36:40.558Z,6.70
2019-03-25T04:40:04.831Z,6.80
2019-03-25T04:43:28.738Z,6.80
2019-03-25T04:46:52.627Z,6.80
2019-03-25T04:50:16.552Z,6.70
2019-03-25T04:53:40.775Z,6.60
2019-03-25T04:57:04.661Z,6.60
2019-03-25T05:00:36.577Z,6.60
2019-03-25T05:04:00.476Z,6.60
2019-03-25T05:07:24.354Z,6.60
2019-03-25T05:10:48.295Z,6.70
2019-03-25T05:14:12.307Z,6.70
2019-03-25T05:17:36.263Z,6.60
2019-03-25T05:21:00.207Z,6.40
2019-03-25T05:24:24.080Z,6.20
2019-03-25T05:27:47.965Z,6.00
2019-03-25T05:31:11.908Z,6.00
2019-03-25T05:34:35.761Z,6.10
2019-03-25T05:38:00.661Z,6.10
2019-03-25T05:41:24.587Z,6.00
2019-03-25T05:44:48.518Z,5.90
2019-03-25T05:48:12.391Z,5.70
2019-03-25T05:51:36.716Z,5.60
2019-03-25T05:55:01.144Z,5.60
2019-03-25T05:58:25.164Z,5.50
2019-03-25T06:01:49.265Z,5.40
2019-03-25T06:05:13.319Z,5.30
2019-03-25T06:08:37.690Z,5.30
2019-03-25T06:12:01.590Z,5.50
2019-03-25T06:15:25.812Z,5.60
2019-03-25T06:18:49.676Z,5.90
2019-03-25T06:22:13.605Z,6.10
2019-03-25T06:25:37.617Z,6.00
2019-03-25T06:29:01.586Z,5.90
2019-03-25T06:32:25.943Z,5.90
2019-03-25T06:35:50.129Z,5.80
2019-03-25T06:39:14.347Z,5.70
2019-03-25T06:42:38.268Z,5.70
2019-03-25T06:46:02.195Z,5.80
2019-03-25T06:49:26.078Z,6.00
2019-03-25T06:52:50.157Z,6.20
2019-03-25T06:56:14.709Z,6.50
2019-03-25T06:59:38.741Z,6.70
2019-03-25T07:03:02.652Z,6.90
2019-03-25T07:06:26.677Z,7.10
2019-03-25T07:09:50.572Z,7.30
2019-03-25T07:13:15.063Z,7.40
2019-03-25T07:16:39.007Z,7.40
2019-03-25T07:20:03.381Z,7.20
2019-03-25T07:23:27.407Z,7.10
2019-03-25T07:26:51.404Z,7.10
2019-03-25T07:30:15.442Z,7.10
2019-03-25T07:33:39.372Z,7.10
2019-03-25T07:37:03.507Z,7.30
2019-03-25T07:40:27.544Z,7.40
2019-03-25T07:43:51.782Z,7.40
2019-03-25T07:47:15.698Z,7.30
2019-03-25T07:50:39.703Z,7.30
2019-03-25T07:54:03.695Z,7.30
2019-03-25T07:57:27.652Z,7.20
2019-03-25T08:00:51.691Z,7.30
2019-03-25T08:04:15.737Z,7.40
2019-03-25T08:07:39.651Z,7.80
2019-03-25T08:11:03.670Z,8.20
2019-03-25T08:14:27.550Z,8.60
2019-03-25T08:17:51.775Z,8.40
2019-03-25T08:21:15.674Z,8.30
2019-03-25T08:24:39.623Z,8.40
2019-03-25T08:28:03.550Z,8.40
2019-03-25T08:31:27.893Z,8.00
2019-03-25T08:34:52.292Z,7.90
2019-03-25T08:38:16.239Z,7.90
2019-03-25T08:41:40.503Z,8.10
2019-03-25T08:45:05.452Z,7.70
2019-03-25T08:48:30.693Z,7.30
2019-03-25T08:51:54.770Z,7.10
2019-03-25T08:55:18.717Z,7.30
2019-03-25T08:58:42.883Z,7.80
2019-03-25T09:02:06.852Z,8.10
2019-03-25T09:05:30.815Z,8.40
2019-03-25T09:08:54.941Z,8.50
2019-03-25T09:12:18.891Z,8.60
2019-03-25T09:15:42.819Z,8.70
2019-03-25T09:19:06.785Z,8.80
2019-03-25T09:22:30.748Z,9.10
2019-03-25T09:25:54.712Z,9.20
2019-03-25T09:29:18.618Z,9.20
2019-03-25T09:32:42.986Z,9.30
2019-03-25T09:36:07.070Z,9.70
2019-03-25T09:39:30.979Z,9.50
2019-03-25T09:42:54.903Z,9.50
2019-03-25T09:46:19.320Z,9.60
2019-03-25T09:49:43.249Z,10.00
2019-03-25T09:53:07.259Z,11.20
2019-03-25T09:56:31.552Z,11.70
2019-03-25T09:59:55.478Z,13.40
2019-03-25T10:03:19.424Z,14.20
2019-03-25T10:06:44.509Z,14.70
2019-03-25T10:10:09.037Z,12.90
2019-03-25T10:13:33.334Z,10.70
2019-03-25T10:16:57.317Z,8.90
2019-03-25T10:20:21.253Z,10.00
2019-03-25T10:23:45.212Z,11.90
2019-03-25T10:27:09.247Z,13.70
2019-03-25T10:30:33.184Z,14.70
2019-03-25T10:33:57.266Z,16.00
2019-03-25T10:37:21.298Z,16.70
2019-03-25T10:40:45.256Z,16.20
2019-03-25T10:44:09.194Z,15.40
2019-03-25T10:47:33.152Z,15.40
2019-03-25T10:50:58.114Z,15.10
2019-03-25T10:54:22.644Z,15.00
2019-03-25T10:57:46.631Z,15.60
2019-03-25T11:01:10.780Z,15.50
2019-03-25T11:04:34.839Z,15.60
2019-03-25T11:07:58.869Z,15.40
2019-03-25T11:11:23.060Z,16.10
2019-03-25T11:14:47.044Z,15.60
2019-03-25T11:18:11.238Z,12.90
2019-03-25T11:21:35.243Z,10.60
2019-03-25T11:24:59.146Z,9.60
2019-03-25T11:28:24.070Z,10.70
2019-03-25T11:31:47.979Z,13.40
2019-03-25T11:35:13.714Z,15.70
2019-03-25T11:38:37.559Z,17.70
2019-03-25T11:42:01.588Z,19.00
2019-03-25T11:45:25.733Z,19.20
2019-03-25T11:48:49.714Z,20.80
2019-03-25T11:52:13.639Z,22.30
2019-03-25T11:55:37.550Z,22.40
2019-03-25T11:59:02.954Z,21.00
2019-03-25T12:02:27.209Z,20.20
2019-03-25T12:05:51.131Z,17.30
2019-03-25T12:09:15.144Z,16.70
2019-03-25T12:12:39.150Z,16.30
2019-03-25T12:16:03.208Z,15.40
2019-03-25T12:19:27.119Z,14.80
2019-03-25T12:22:51.077Z,14.10
2019-03-25T12:26:15.266Z,14.30
2019-03-25T12:29:39.203Z,17.10
2019-03-25T12:33:04.339Z,17.70
2019-03-25T12:36:28.495Z,19.70
2019-03-25T12:39:52.693Z,21.50
2019-03-25T12:43:16.936Z,23.40
2019-03-25T12:46:41.000Z,23.20
2019-03-25T12:50:05.931Z,21.20
2019-03-25T12:53:29.884Z,21.30
2019-03-25T12:56:53.958Z,22.90
2019-03-25T13:00:34.779Z,24.90
2019-03-25T13:03:58.858Z,25.50
2019-03-25T13:07:22.813Z,23.50
2019-03-25T13:10:47.319Z,20.20
2019-03-25T13:14:11.382Z,17.60
2019-03-25T13:17:35.429Z,17.40
2019-03-25T13:20:59.422Z,17.20
2019-03-25T13:24:23.310Z,16.20
2019-03-25T13:27:47.480Z,15.20
2019-03-25T13:31:11.474Z,13.90
2019-03-25T13:34:35.373Z,12.80
2019-03-25T13:38:00.377Z,11.90
2019-03-25T13:41:24.681Z,10.60
2019-03-25T13:44:48.579Z,9.60
2019-03-25T13:48:12.481Z,9.20
2019-03-25T13:51:36.404Z,9.00
2019-03-25T13:55:00.447Z,11.20
2019-03-25T13:58:24.511Z,11.40
2019-03-25T14:01:48.571Z,10.80
2019-03-25T14:05:12.675Z,10.40
2019-03-25T14:08:36.615Z,10.00
2019-03-25T14:12:00.712Z,9.60
2019-03-25T14:15:24.670Z,9.00
2019-03-25T14:18:48.538Z,8.50
2019-03-25T14:22:13.936Z,9.00
2019-03-25T14:25:38.019Z,9.80
2019-03-25T14:29:02.084Z,9.90
2019-03-25T14:32:26.020Z,10.50
2019-03-25T14:35:50.099Z,15.10
2019-03-25T14:39:14.173Z,18.40
2019-03-25T14:42:41.049Z,20.40
2019-03-25T14:46:05.313Z,21.20
2019-03-25T14:49:31.214Z,21.00
2019-03-25T14:52:55.889Z,18.40
2019-03-25T14:56:20.482Z,15.70
2019-03-25T14:59:47.464Z,13.80
2019-03-25T15:03:12.174Z,13.60
2019-03-25T15:06:36.415Z,17.00
2019-03-25T15:10:00.366Z,19.30
2019-03-25T15:13:24.366Z,22.40
2019-03-25T15:16:48.450Z,24.50
2019-03-25T15:20:15.585Z,25.10
2019-03-25T15:23:39.650Z,24.70
2019-03-25T15:27:03.773Z,24.90
2019-03-25T15:30:35.459Z,25.30
2019-03-25T15:33:54.068Z,25.50
2019-03-25T15:37:17.970Z,24.90
2019-03-25T15:40:42.040Z,22.20
2019-03-25T15:44:06.444Z,20.60
2019-03-25T15:47:30.422Z,17.80
2019-03-25T15:50:54.412Z,16.60
2019-03-25T15:54:18.737Z,15.30
2019-03-25T15:57:42.742Z,14.60
2019-03-25T16:01:06.659Z,13.80
2019-03-25T16:04:30.643Z,14.00
2019-03-25T16:07:55.060Z,15.30
2019-03-25T16:11:19.054Z,15.80
2019-03-25T16:14:43.065Z,15.50
2019-03-25T16:18:07.759Z,15.40
2019-03-25T16:21:31.810Z,14.40
2019-03-25T16:24:56.159Z,13.70
2019-03-25T16:28:20.054Z,13.00
2019-03-25T16:31:44.314Z,12.70
2019-03-25T16:35:08.527Z,12.40
2019-03-25T16:38:33.603Z,12.00
2019-03-25T16:41:57.611Z,11.50
2019-03-25T16:45:23.759Z,12.40
2019-03-25T16:48:48.600Z,12.30
2019-03-25T16:52:12.612Z,11.90
2019-03-25T16:55:36.489Z,11.20
2019-03-25T16:59:00.376Z,10.90
2019-03-25T17:02:24.702Z,10.80
2019-03-25T17:05:49.000Z,10.80
2019-03-25T17:09:13.267Z,10.80
2019-03-25T17:12:37.795Z,10.70
2019-03-25T17:16:01.800Z,10.60
2019-03-25T17:19:25.713Z,10.60
2019-03-25T17:22:49.637Z,10.50
2019-03-25T17:26:13.663Z,10.60
2019-03-25T17:29:38.894Z,10.30
2019-03-25T17:33:02.721Z,10.20
2019-03-25T17:36:27.251Z,10.00
2019-03-25T17:39:51.296Z,9.90
2019-03-25T17:43:15.251Z,9.80
2019-03-25T17:46:39.726Z,9.80
2019-03-25T17:50:04.828Z,9.70
2019-03-25T17:53:29.261Z,9.60
2019-03-25T17:56:53.368Z,9.50
2019-03-25T18:01:15.086Z,9.40
2019-03-25T18:04:39.147Z,9.40
2019-03-25T18:08:03.286Z,9.30
2019-03-25T18:11:27.788Z,9.30
2019-03-25T18:14:51.800Z,9.30
2019-03-25T18:18:15.705Z,9.30
2019-03-25T18:21:39.601Z,9.20
2019-03-25T18:25:03.697Z,9.20
2019-03-25T18:28:27.668Z,9.20
2019-03-25T18:31:51.623Z,9.20
2019-03-25T18:35:23.332Z,9.10
2019-03-25T18:38:47.303Z,9.20
2019-03-25T18:42:11.575Z,9.10
2019-03-25T18:45:35.538Z,9.10
2019-03-25T18:48:59.421Z,9.10
2019-03-25T18:52:23.395Z,9.00
2019-03-25T18:55:47.558Z,9.10
2019-03-25T18:59:12.182Z,9.00
2019-03-25T19:02:36.466Z,9.00
2019-03-25T19:06:00.397Z,9.00
2019-03-25T19:09:24.436Z,8.90
2019-03-25T19:12:48.584Z,8.90
2019-03-25T19:16:12.503Z,8.90
2019-03-25T19:19:36.780Z,8.90
2019-03-25T19:23:00.932Z,8.80
2019-03-25T19:26:24.904Z,8.80
2019-03-25T19:29:49.879Z,8.80
2019-03-25T19:33:14.595Z,8.80
2019-03-25T19:36:38.804Z,8.70
2019-03-25T19:40:03.012Z,8.70
2019-03-25T19:43:27.045Z,8.60
2019-03-25T19:46:51.216Z,8.50
2019-03-25T19:50:16.988Z,8.40
2019-03-25T19:53:41.126Z,8.30
2019-03-25T19:57:05.160Z,8.20
2019-03-25T20:01:19.153Z,8.00
2019-03-25T20:04:43.099Z,7.80
2019-03-25T20:08:08.311Z,7.60
2019-03-25T20:11:33.439Z,7.50
2019-03-25T20:14:57.496Z,7.50
2019-03-25T20:18:21.954Z,7.50
2019-03-25T20:21:47.356Z,7.40
2019-03-25T20:25:11.825Z,7.40
2019-03-25T20:28:38.617Z,7.50
2019-03-25T20:32:03.919Z,7.60
2019-03-25T20:35:31.186Z,7.60
2019-03-25T20:38:56.174Z,7.60
2019-03-25T20:42:22.635Z,7.60
2019-03-25T20:45:46.655Z,7.60
2019-03-25T20:49:10.958Z,7.70
2019-03-25T20:52:37.584Z,7.70
2019-03-25T20:56:05.124Z,7.70
2019-03-25T20:59:29.326Z,7.70
2019-03-25T21:02:53.434Z,7.70
2019-03-25T21:06:18.276Z,7.70
2019-03-25T21:09:44.405Z,7.70
2019-03-25T21:13:08.533Z,7.60
2019-03-25T21:16:32.672Z,7.50
2019-03-25T21:19:57.616Z,7.50
2019-03-25T21:23:21.559Z,7.60
2019-03-25T21:26:45.708Z,7.60
2019-03-25T21:30:10.272Z,7.60
2019-03-25T21:33:34.442Z,7.50
2019-03-25T21:36:58.574Z,7.50
2019-03-25T21:40:22.861Z,7.50
2019-03-25T21:43:46.976Z,7.50
2019-03-25T21:47:11.042Z,7.60
2019-03-25T21:50:35.118Z,7.60
2019-03-25T21:53:59.148Z,7.60
2019-03-25T21:57:23.177Z,7.60
2019-03-25T22:00:48.212Z,7.60
2019-03-25T22:04:12.639Z,7.60
2019-03-25T22:07:36.672Z,7.60
2019-03-25T22:11:01.018Z,7.60
2019-03-25T22:14:25.351Z,7.60
2019-03-25T22:17:49.301Z,7.60
2019-03-25T22:21:13.358Z,7.60
2019-03-25T22:24:37.301Z,7.60
2019-03-25T22:28:01.220Z,7.60
2019-03-25T22:31:26.063Z,7.50
2019-03-25T22:34:50.136Z,7.50
2019-03-25T22:38:14.131Z,7.50
2019-03-25T22:41:38.057Z,7.50
2019-03-25T22:45:02.054Z,7.50
2019-03-25T22:48:27.091Z,7.50
2019-03-25T22:51:51.067Z,7.40
2019-03-25T22:55:15.126Z,7.50
2019-03-25T22:58:39.375Z,7.50
2019-03-25T23:02:03.666Z,7.60
2019-03-25T23:05:27.796Z,7.50
2019-03-25T23:08:51.755Z,7.50
2019-03-25T23:12:15.863Z,7.50
2019-03-25T23:15:39.829Z,7.40
2019-03-25T23:19:03.770Z,7.50
2019-03-25T23:22:27.790Z,7.50
2019-03-25T23:25:52.801Z,7.40
2019-03-25T23:29:17.955Z,7.40
2019-03-25T23:32:42.087Z,7.40
2019-03-25T23:36:06.172Z,7.40
2019-03-25T23:39:30.159Z,7.40
2019-03-25T23:42:54.267Z,7.40
2019-03-25T23:46:18.382Z,7.40
2019-03-25T23:49:42.546Z,7.40
2019-03-25T23:53:06.521Z,7.40
2019-03-25T23:56:30.566Z,7.40
2019-03-25T23:59:54.663Z,7.40
